createdAt,value
2022-07-30T00:03:41.869Z,87.98
2022-07-30T00:07:43.481Z,87.38
2022-07-30T00:11:45.136Z,88.41
2022-07-30T00:15:46.759Z,88.39
2022-07-30T00:19:48.415Z,89.43
2022-07-30T00:24:01.683Z,89.74
2022-07-30T00:28:04.128Z,91.07
2022-07-30T00:32:06.104Z,90.51
2022-07-30T00:36:07.703Z,90.99
2022-07-30T00:40:09.713Z,90.76
2022-07-30T00:44:11.283Z,91.52
2022-07-30T00:48:14.430Z,91.67
2022-07-30T00:52:16.040Z,94.13
2022-07-30T00:56:17.834Z,94.77
2022-07-30T01:00:20.217Z,96.69
2022-07-30T01:04:21.853Z,95.69
2022-07-30T01:08:23.510Z,95.75
2022-07-30T01:12:27.657Z,95.48
2022-07-30T01:16:29.668Z,96.67
2022-07-30T01:20:40.687Z,96.21
2022-07-30T01:25:25.006Z,97.16
2022-07-30T01:29:29.089Z,97.83
2022-07-30T01:33:33.533Z,97.27
2022-07-30T01:37:37.146Z,97.86
2022-07-30T01:41:41.189Z,98.36
2022-07-30T01:45:44.472Z,99.04
2022-07-30T01:49:49.528Z,99.68
2022-07-30T01:53:52.692Z,99.51
2022-07-30T01:57:56.130Z,99.15
2022-07-30T02:01:58.786Z,100.00
2022-07-30T02:06:08.086Z,100.00
2022-07-30T02:10:35.190Z,100.00
2022-07-30T02:15:08.169Z,100.00
2022-07-30T02:19:18.352Z,100.00
2022-07-30T02:23:21.656Z,100.00
2022-07-30T02:27:27.291Z,100.00
2022-07-30T02:31:32.848Z,100.00
2022-07-30T02:35:36.982Z,100.00
2022-07-30T02:39:39.656Z,100.00
2022-07-30T02:43:42.964Z,100.00
2022-07-30T02:47:58.716Z,100.00
2022-07-30T02:52:01.628Z,100.00
2022-07-30T02:56:07.641Z,100.00
2022-07-30T03:00:10.153Z,100.00
2022-07-30T03:04:14.158Z,100.00
2022-07-30T03:08:19.273Z,100.00
2022-07-30T03:12:25.438Z,100.00
2022-07-30T03:16:30.595Z,100.00
2022-07-30T03:20:35.056Z,100.00
2022-07-30T03:24:38.843Z,100.00
2022-07-30T03:28:46.960Z,100.00
2022-07-30T03:32:49.332Z,100.00
2022-07-30T03:36:52.794Z,100.00
2022-07-30T03:40:56.156Z,100.00
2022-07-30T03:45:00.856Z,100.00
2022-07-30T03:49:04.190Z,100.00
2022-07-30T03:53:08.318Z,100.00
2022-07-30T03:57:21.397Z,100.00
2022-07-30T04:01:27.220Z,100.00
2022-07-30T04:05:41.477Z,100.00
2022-07-30T04:09:44.194Z,100.00
2022-07-30T04:14:04.666Z,100.00
2022-07-30T04:18:08.301Z,100.00
2022-07-30T04:22:13.064Z,100.00
2022-07-30T04:26:15.368Z,100.00
2022-07-30T04:30:17.455Z,100.00
2022-07-30T04:34:19.194Z,100.00
2022-07-30T04:38:21.033Z,100.00
2022-07-30T04:42:30.046Z,100.00
2022-07-30T04:46:45.292Z,100.00
2022-07-30T04:50:51.421Z,100.00
2022-07-30T04:55:02.943Z,100.00
2022-07-30T04:59:05.998Z,100.00
2022-07-30T05:03:10.243Z,100.00
2022-07-30T05:07:14.635Z,100.00
2022-07-30T05:11:16.957Z,100.00
2022-07-30T05:15:19.927Z,100.00
2022-07-30T05:19:22.852Z,100.00
2022-07-30T05:23:24.683Z,100.00
2022-07-30T05:27:36.059Z,100.00
2022-07-30T05:31:42.525Z,100.00
2022-07-30T05:35:45.382Z,100.00
2022-07-30T05:40:02.692Z,100.00
2022-07-30T05:44:25.383Z,100.00
2022-07-30T05:48:28.106Z,100.00
2022-07-30T05:52:29.927Z,100.00
2022-07-30T05:56:40.888Z,100.00
2022-07-30T06:00:49.517Z,100.00
2022-07-30T06:04:53.736Z,100.00
2022-07-30T06:08:55.969Z,100.00
2022-07-30T06:12:57.918Z,98.62
2022-07-30T06:17:00.695Z,96.79
2022-07-30T06:21:11.611Z,96.63
2022-07-30T06:25:31.429Z,95.00
2022-07-30T06:29:33.502Z,92.53
2022-07-30T06:33:36.008Z,90.69
2022-07-30T06:38:04.987Z,89.10
2022-07-30T06:42:03.494Z,87.62
2022-07-30T06:46:25.213Z,85.36
2022-07-30T06:50:28.244Z,83.85
2022-07-30T06:54:30.398Z,82.55
2022-07-30T06:58:48.123Z,81.70
2022-07-30T07:03:13.770Z,80.11
2022-07-30T07:07:23.035Z,79.32
2022-07-30T07:11:33.824Z,76.14
2022-07-30T07:15:42.229Z,75.58
2022-07-30T07:20:00.842Z,73.81
2022-07-30T07:24:06.526Z,72.12
2022-07-30T07:28:33.440Z,69.64
2022-07-30T07:32:36.567Z,67.11
2022-07-30T07:42:23.430Z,64.93
2022-07-30T08:24:44.798Z,53.22
2022-07-30T08:28:46.753Z,51.89
2022-07-30T08:32:49.592Z,51.22
2022-07-30T08:37:04.020Z,49.54
2022-07-30T08:41:09.377Z,49.42
2022-07-30T08:45:18.202Z,48.01
2022-07-30T08:49:20.813Z,48.47
2022-07-30T08:53:43.907Z,47.40
2022-07-30T08:57:49.537Z,48.63
2022-07-30T09:02:07.800Z,48.38
2022-07-30T09:11:15.480Z,46.35
2022-07-30T09:20:18.462Z,46.12
2022-07-30T09:33:47.982Z,44.13
2022-07-30T09:38:19.639Z,43.45
2022-07-30T09:42:29.597Z,43.04
2022-07-30T09:46:48.399Z,42.42
2022-07-30T09:51:16.644Z,41.45
2022-07-30T09:55:32.025Z,41.79
2022-07-30T09:59:36.896Z,42.33
2022-07-30T10:03:43.570Z,43.84
2022-07-30T10:08:50.592Z,43.14
2022-07-30T10:12:56.976Z,42.04
2022-07-30T10:16:59.812Z,41.10
2022-07-30T10:21:05.336Z,40.84
2022-07-30T10:25:49.176Z,41.13
2022-07-30T10:30:27.798Z,40.63
2022-07-30T10:34:34.020Z,37.91
2022-07-30T10:38:52.467Z,36.84
2022-07-30T10:43:32.124Z,36.39
2022-07-30T10:47:44.792Z,36.15
2022-07-30T10:51:55.130Z,35.25
2022-07-30T10:56:25.763Z,34.88
2022-07-30T11:00:32.584Z,34.58
2022-07-30T11:04:34.424Z,33.99
2022-07-30T11:08:48.640Z,33.54
2022-07-30T11:13:19.995Z,33.39
2022-07-30T11:22:36.198Z,33.53
2022-07-30T11:26:41.971Z,34.08
2022-07-30T11:32:03.967Z,34.89
2022-07-30T11:36:11.738Z,35.05
2022-07-30T11:41:07.511Z,35.00
2022-07-30T11:45:30.443Z,33.36
2022-07-30T11:49:52.567Z,33.10
2022-07-30T11:54:14.769Z,32.21
2022-07-30T11:58:39.833Z,30.45
2022-07-30T12:13:44.488Z,27.07
2022-07-30T12:18:11.077Z,25.23
2022-07-30T12:22:22.127Z,25.66
2022-07-30T12:27:16.984Z,24.23
2022-07-30T12:31:29.196Z,23.75
2022-07-30T12:44:52.050Z,22.66
2022-07-30T12:49:22.431Z,21.75
2022-07-30T12:53:30.990Z,21.33
2022-07-30T12:57:55.449Z,20.46
2022-07-30T13:01:58.256Z,20.53
2022-07-30T13:06:00.516Z,19.83
2022-07-30T13:10:10.445Z,19.84
2022-07-30T13:14:14.163Z,19.53
2022-07-30T13:18:15.787Z,19.73
2022-07-30T13:22:17.502Z,19.55
2022-07-30T13:26:20.467Z,18.52
2022-07-30T13:30:22.166Z,18.84
2022-07-30T13:34:23.760Z,18.68
2022-07-30T13:38:25.471Z,18.31
2022-07-30T13:42:27.134Z,17.95
2022-07-30T13:46:28.852Z,17.69
2022-07-30T13:50:30.613Z,18.53
2022-07-30T13:54:32.237Z,19.03
2022-07-30T13:58:36.006Z,18.29
2022-07-30T14:02:37.993Z,18.33
2022-07-30T14:06:39.760Z,18.05
2022-07-30T14:10:41.652Z,18.65
2022-07-30T14:14:43.753Z,18.85
2022-07-30T14:18:45.639Z,18.69
2022-07-30T14:22:47.318Z,17.67
2022-07-30T14:26:55.850Z,17.12
2022-07-30T14:30:59.711Z,17.05
2022-07-30T14:35:01.385Z,16.63
2022-07-30T14:39:04.857Z,17.21
2022-07-30T14:43:06.641Z,17.50
2022-07-30T14:47:08.960Z,17.39
2022-07-30T14:51:17.734Z,16.95
2022-07-30T14:55:24.433Z,17.17
2022-07-30T14:59:27.676Z,18.36
2022-07-30T15:03:29.446Z,19.42
2022-07-30T15:07:31.093Z,19.68
2022-07-30T15:12:08.260Z,19.61
2022-07-30T15:16:13.553Z,20.79
2022-07-30T15:20:15.249Z,21.12
2022-07-30T15:24:16.819Z,21.49
2022-07-30T15:28:19.594Z,21.82
2022-07-30T15:32:21.222Z,22.39
2022-07-30T15:36:22.921Z,23.35
2022-07-30T15:40:24.841Z,23.60
2022-07-30T15:44:26.407Z,23.67
2022-07-30T15:48:28.066Z,24.26
2022-07-30T15:52:29.909Z,23.13
2022-07-30T15:56:33.469Z,22.65
2022-07-30T16:00:35.059Z,22.44
2022-07-30T16:04:38.840Z,22.81
2022-07-30T16:08:42.906Z,23.42
2022-07-30T16:12:44.567Z,23.49
2022-07-30T16:16:46.430Z,23.11
2022-07-30T16:20:54.692Z,23.65
2022-07-30T16:24:56.405Z,24.10
2022-07-30T16:28:58.216Z,23.41
2022-07-30T16:32:59.994Z,23.64
2022-07-30T16:37:03.847Z,24.58
2022-07-30T16:41:10.439Z,24.72
2022-07-30T16:45:14.915Z,24.69
2022-07-30T16:49:16.634Z,24.12
2022-07-30T16:53:19.089Z,24.17
2022-07-30T16:57:23.955Z,23.99
2022-07-30T17:01:26.329Z,23.17
2022-07-30T17:05:28.165Z,23.72
2022-07-30T17:09:36.309Z,23.17
2022-07-30T17:13:40.394Z,23.69
2022-07-30T17:17:42.406Z,23.23
2022-07-30T17:21:44.251Z,23.04
2022-07-30T17:25:48.891Z,23.24
2022-07-30T17:29:50.947Z,23.54
2022-07-30T17:33:52.909Z,22.77
2022-07-30T17:37:54.613Z,22.64
2022-07-30T17:42:01.000Z,23.04
2022-07-30T17:50:57.850Z,23.44
2022-07-30T17:54:59.975Z,23.90
2022-07-30T17:59:02.042Z,23.88
2022-07-30T18:03:10.834Z,24.89
2022-07-30T18:07:13.100Z,25.83
2022-07-30T18:16:10.221Z,26.59
2022-07-30T18:20:38.578Z,26.93
2022-07-30T18:24:56.015Z,28.41
2022-07-30T18:29:10.992Z,28.29
2022-07-30T18:33:37.559Z,28.42
2022-07-30T18:37:43.604Z,28.94
2022-07-30T18:41:45.965Z,28.98
2022-07-30T18:45:48.661Z,28.99
2022-07-30T18:49:50.533Z,29.20
2022-07-30T18:53:53.325Z,29.64
2022-07-30T18:57:54.944Z,29.83
2022-07-30T19:01:56.614Z,30.06
2022-07-30T19:05:58.211Z,30.49
2022-07-30T19:10:00.392Z,30.44
2022-07-30T19:14:02.035Z,30.78
2022-07-30T19:18:03.999Z,30.98
2022-07-30T19:22:06.136Z,31.34
2022-07-30T19:26:08.479Z,31.78
2022-07-30T19:30:10.626Z,31.95
2022-07-30T19:34:12.208Z,32.43
2022-07-30T19:38:21.403Z,32.65
2022-07-30T19:42:23.870Z,33.19
2022-07-30T19:46:27.277Z,33.72
2022-07-30T19:50:31.178Z,34.35
2022-07-30T19:54:34.079Z,34.63
2022-07-30T19:58:39.998Z,35.04
2022-07-30T20:02:42.043Z,35.60
2022-07-30T20:06:46.216Z,35.79
2022-07-30T20:10:48.461Z,35.95
2022-07-30T20:14:50.409Z,36.93
2022-07-30T20:18:52.188Z,36.96
2022-07-30T20:22:53.801Z,36.95
2022-07-30T20:26:55.542Z,37.53
2022-07-30T20:31:00.525Z,37.82
2022-07-30T20:35:02.307Z,38.41
2022-07-30T20:39:04.110Z,38.56
2022-07-30T20:43:06.668Z,38.82
2022-07-30T20:47:09.603Z,38.54
2022-07-30T20:51:11.206Z,39.15
2022-07-30T20:55:14.546Z,39.19
2022-07-30T20:59:18.702Z,39.35
2022-07-30T21:03:25.247Z,39.61
2022-07-30T21:07:36.609Z,39.51
2022-07-30T21:11:42.793Z,39.82
2022-07-30T21:16:02.197Z,39.69
2022-07-30T21:20:06.041Z,40.12
2022-07-30T21:24:12.353Z,40.01
2022-07-30T21:28:18.505Z,40.49
2022-07-30T21:32:29.430Z,40.72
2022-07-30T21:36:31.109Z,40.83
2022-07-30T21:40:32.677Z,41.12
2022-07-30T21:44:34.424Z,41.36
2022-07-30T21:48:36.043Z,41.59
2022-07-30T21:52:37.693Z,40.76
2022-07-30T21:56:41.721Z,40.96
2022-07-30T22:00:50.505Z,41.32
2022-07-30T22:04:53.722Z,41.40
2022-07-30T22:08:55.664Z,41.78
2022-07-30T22:12:57.280Z,42.02
2022-07-30T22:16:58.891Z,42.93
2022-07-30T22:21:00.478Z,43.16
2022-07-30T22:25:02.109Z,43.77
2022-07-30T22:29:03.727Z,43.48
2022-07-30T22:33:11.326Z,43.32
2022-07-30T22:37:16.394Z,43.95
2022-07-30T22:41:21.251Z,43.81
2022-07-30T22:45:46.448Z,44.38
2022-07-30T22:49:58.085Z,44.85
2022-07-30T22:54:12.551Z,44.71
2022-07-30T22:58:14.782Z,44.83
2022-07-30T23:02:16.427Z,45.00
2022-07-30T23:06:20.613Z,45.21
2022-07-30T23:10:22.919Z,45.57
2022-07-30T23:14:28.838Z,45.84
2022-07-30T23:18:30.483Z,45.71
2022-07-30T23:22:32.203Z,45.81
2022-07-30T23:26:33.811Z,45.86
2022-07-30T23:30:35.783Z,45.79
2022-07-30T23:34:40.441Z,46.17
2022-07-30T23:38:42.093Z,46.58
2022-07-30T23:42:50.199Z,46.61
2022-07-30T23:46:51.831Z,46.67
2022-07-30T23:50:53.978Z,46.39
2022-07-30T23:54:55.598Z,47.11
2022-07-30T23:58:57.169Z,47.65
